Página principal
METAR-TAF:

METAR-TAF

Aeroportos :

Aeroporto Internacional Modibo Keita

Bamako, Mali

latitude: 12-32N, longitude: 007-57W, altura: 380 m

Observação actual do tempo

O boletim foi feito há 28 minutos, às 00:00 UTC
Vento 1 kt com direcção variável
Temperatura 24°C
Humidade 65%
Pressão 1013 hPa
Visibilidade 10 km ou mais
sem nuvens abaixo de 1500 metros e sem cumulonimbus

METAR: GABS 140000Z VRB01KT CAVOK 24/17 Q1013 NOSIG

Hora: 00:28 (00:28 UTC)

Previsão

O boletim foi feito há 1 hora e 28 minutos, às 23:00 UTC
Previsão válida de 14 às 00 UTC a 15 às 06 UTC
Vento 6 kt de oes-sudoeste
Visibilidade: 8000 m
Poucas nuvensa uma altura de 3000 ft
Probabilidade 40% :
Temporariamente
de 14 às 06 UTC a 14 às 11 UTC
Visibilidade: 4000 m
bruma

TAF: GABS 132300Z 1400/1506 24006KT 8000 FEW030 PROB40 TEMPO 1406/1411 4000 HZ

Observações e previsões do tempo de mais de 4000 aeroportos (mensagens METAR e TAF).

As estações disponíveis são os pontos amarelos e vermelhos sobre o mapa.

Mova o rato sobre o mapa para ver o nome da estação.

Depois clique no ponto para visualizar as observações e previsões meteorológicas.

Para alterar o mapa : clique nos botões verdes com uma cruz preta para aumentar o zoom; no botão verde com uma pitada de zoom; ou nas setas verdes para mapas adjacentes.


METAR-TAF: